Terminal Aerodrome Forecast
Issued by NWS Greer, SC

Home | Current Version | Previous Version | Text Only | Print | Product List | Glossary On
Versions: 1 2 3 4 5 6 7 8 9 10 11 12 13 14 15
666
FTUS42 KGSP 121720
TAFGSP
TAF
KGSP 121720Z 1218/1318 02005KT P6SM SCT025 BKN035
      TEMPO 1218/1219 6SM -SN SCT007 BKN025
     FM122100 24006KT P6SM BKN060
     FM122200 24007KT P6SM SCT200
     FM130300 28006KT P6SM FEW250
     FM130900 32007KT P6SM FEW250=

USA.gov is the U.S. government's official web portal to all federal, state and local government web resources and services.